createdAt,value
2023-05-13T00:02:08.508Z,98783.16
2023-05-13T00:04:36.193Z,98781.78
2023-05-13T00:07:03.710Z,98780.00
2023-05-13T00:09:32.093Z,98782.28
2023-05-13T00:12:00.397Z,98781.97
2023-05-13T00:14:27.920Z,98776.34
2023-05-13T00:16:55.702Z,98775.63
2023-05-13T00:19:23.086Z,98769.69
2023-05-13T00:21:51.100Z,98774.19
2023-05-13T00:24:19.323Z,98780.69
2023-05-13T00:26:46.872Z,98773.94
2023-05-13T00:29:14.643Z,98781.81
2023-05-13T00:31:42.303Z,98770.63
2023-05-13T00:34:09.679Z,98777.88
2023-05-13T00:36:37.004Z,98773.94
2023-05-13T00:39:04.970Z,98777.81
2023-05-13T00:41:32.569Z,98775.63
2023-05-13T00:43:59.925Z,98777.94
2023-05-13T00:46:33.319Z,98777.16
2023-05-13T00:49:01.408Z,98781.91
2023-05-13T00:51:28.704Z,98771.84
2023-05-13T00:53:59.753Z,98768.75
2023-05-13T00:56:27.485Z,98765.66
2023-05-13T00:58:54.733Z,98766.81
2023-05-13T01:02:21.896Z,98759.81
2023-05-13T01:05:27.366Z,98773.25
2023-05-13T01:08:28.726Z,98767.03
2023-05-13T01:11:15.014Z,98772.66
2023-05-13T01:13:47.243Z,98767.81
2023-05-13T01:16:37.196Z,98770.56
2023-05-13T01:19:26.841Z,98771.47
2023-05-13T01:21:55.983Z,98773.38
2023-05-13T01:24:24.335Z,98776.34
2023-05-13T01:26:53.544Z,98776.41
2023-05-13T01:29:21.894Z,98772.38
2023-05-13T01:31:51.701Z,98774.63
2023-05-13T01:34:24.004Z,98773.19
2023-05-13T01:36:54.648Z,98780.22
2023-05-13T01:39:25.749Z,98777.06
2023-05-13T01:41:58.950Z,98784.81
2023-05-13T01:44:26.502Z,98775.66
2023-05-13T01:46:53.828Z,98773.47
2023-05-13T01:49:21.931Z,98773.44
2023-05-13T01:51:49.165Z,98775.22
2023-05-13T01:54:16.555Z,98784.16
2023-05-13T01:56:49.491Z,98776.59
2023-05-13T01:59:16.753Z,98792.91
2023-05-13T02:01:46.391Z,98781.34
2023-05-13T02:04:13.815Z,98794.94
2023-05-13T02:06:43.450Z,98793.84
2023-05-13T02:09:10.911Z,98787.84
2023-05-13T02:11:41.092Z,98795.22
2023-05-13T02:14:08.675Z,98790.81
2023-05-13T02:16:36.427Z,98788.91
2023-05-13T02:19:07.586Z,98793.88
2023-05-13T02:21:35.061Z,98793.94
2023-05-13T02:24:02.742Z,98788.06
2023-05-13T02:26:30.373Z,98798.91
2023-05-13T02:29:03.120Z,98790.59
2023-05-13T02:31:30.516Z,98789.72
2023-05-13T02:33:57.969Z,98790.84
2023-05-13T02:36:26.208Z,98780.25
2023-05-13T02:38:54.017Z,98792.53
2023-05-13T02:41:21.796Z,98796.44
2023-05-13T02:43:50.041Z,98796.44
2023-05-13T02:46:17.335Z,98789.75
2023-05-13T02:48:46.178Z,98792.53
2023-05-13T02:51:13.367Z,98796.13
2023-05-13T02:53:41.281Z,98791.38
2023-05-13T02:56:10.237Z,98787.41
2023-05-13T02:58:37.671Z,98787.53
2023-05-13T03:01:05.035Z,98784.72
2023-05-13T03:03:32.311Z,98785.19
2023-05-13T03:06:00.014Z,98787.44
2023-05-13T03:08:27.344Z,98787.22
2023-05-13T03:10:54.991Z,98793.66
2023-05-13T03:13:22.581Z,98795.34
2023-05-13T03:15:51.439Z,98799.78
2023-05-13T03:18:19.105Z,98796.72
2023-05-13T03:20:46.766Z,98800.63
2023-05-13T03:23:16.569Z,98796.44
2023-05-13T03:25:46.592Z,98797.28
2023-05-13T03:28:14.221Z,98799.81
2023-05-13T03:30:44.500Z,98797.22
2023-05-13T03:33:18.647Z,98803.09
2023-05-13T03:35:48.967Z,98814.81
2023-05-13T03:38:18.835Z,98805.34
2023-05-13T03:40:55.560Z,98812.88
2023-05-13T03:43:23.267Z,98808.69
2023-05-13T03:45:56.313Z,98808.75
2023-05-13T03:48:25.355Z,98819.53
2023-05-13T03:50:54.506Z,98810.38
2023-05-13T03:53:22.715Z,98810.94
2023-05-13T03:55:50.567Z,98816.56
2023-05-13T03:58:19.032Z,98825.19
2023-05-13T04:00:47.235Z,98811.22
2023-05-13T04:03:17.371Z,98823.50
2023-05-13T04:05:48.163Z,98824.06
2023-05-13T04:08:16.399Z,98826.06
2023-05-13T04:10:44.802Z,98829.34
2023-05-13T04:13:12.433Z,98825.16
2023-05-13T04:15:39.710Z,98823.78
2023-05-13T04:18:07.693Z,98829.69
2023-05-13T04:20:39.560Z,98827.13
2023-05-13T04:23:07.845Z,98822.69
2023-05-13T04:25:37.363Z,98821.03
2023-05-13T04:28:05.884Z,98827.13
2023-05-13T04:30:39.070Z,98845.09
2023-05-13T04:33:07.033Z,98836.16
2023-05-13T04:35:35.809Z,98832.78
2023-05-13T04:38:06.481Z,98835.06
2023-05-13T04:40:34.232Z,98838.97
2023-05-13T04:43:09.330Z,98841.19
2023-05-13T04:45:43.949Z,98854.59
2023-05-13T04:48:13.833Z,98853.50
2023-05-13T04:50:48.376Z,98855.41
2023-05-13T04:53:19.719Z,98861.31
2023-05-13T04:55:50.314Z,98857.97
2023-05-13T04:58:17.608Z,98851.84
2023-05-13T05:00:45.077Z,98852.38
2023-05-13T05:03:13.527Z,98870.00
2023-05-13T05:05:41.293Z,98870.16
2023-05-13T05:08:09.871Z,98877.19
2023-05-13T05:10:38.466Z,98867.34
2023-05-13T05:13:11.092Z,98868.16
2023-05-13T05:15:39.326Z,98871.47
2023-05-13T05:18:08.129Z,98871.59
2023-05-13T05:20:38.289Z,98874.22
2023-05-13T05:23:15.329Z,98875.84
2023-05-13T05:25:45.886Z,98868.44
2023-05-13T05:28:13.512Z,98884.53
2023-05-13T05:30:43.642Z,98881.19
2023-05-13T05:33:31.435Z,98890.69
2023-05-13T05:35:58.728Z,98894.03
2023-05-13T05:38:26.416Z,98890.19
2023-05-13T05:40:56.413Z,98895.78
2023-05-13T05:43:23.806Z,98897.75
2023-05-13T05:45:53.049Z,98889.91
2023-05-13T05:48:21.359Z,98903.34
2023-05-13T05:50:49.336Z,98901.94
2023-05-13T05:53:25.522Z,98904.75
2023-05-13T05:55:53.236Z,98900.00
2023-05-13T05:58:21.334Z,98905.56
2023-05-13T06:00:48.932Z,98900.56
2023-05-13T06:03:16.814Z,98903.34
2023-05-13T06:05:44.997Z,98901.09
2023-05-13T06:08:12.796Z,98903.63
2023-05-13T06:10:40.888Z,98906.16
2023-05-13T06:13:08.667Z,98908.09
2023-05-13T06:15:38.433Z,98901.56
2023-05-13T06:18:06.417Z,98905.59
2023-05-13T06:20:35.555Z,98909.47
2023-05-13T06:23:03.221Z,98910.31
2023-05-13T06:25:31.369Z,98906.69
2023-05-13T06:28:00.834Z,98900.00
2023-05-13T06:30:31.371Z,98912.88
2023-05-13T06:33:02.007Z,98905.88
2023-05-13T06:35:31.358Z,98904.59
2023-05-13T06:38:04.731Z,98911.22
2023-05-13T06:40:33.284Z,98899.41
2023-05-13T06:43:00.587Z,98910.41
2023-05-13T06:45:36.903Z,98902.84
2023-05-13T06:48:04.901Z,98913.13
2023-05-13T06:50:32.278Z,98914.16
2023-05-13T06:53:02.247Z,98905.75
2023-05-13T06:55:29.673Z,98909.22
2023-05-13T06:57:56.920Z,98909.69
2023-05-13T07:00:24.616Z,98907.38
2023-05-13T07:02:52.147Z,98921.41
2023-05-13T07:05:19.598Z,98919.59
2023-05-13T07:07:46.978Z,98920.31
2023-05-13T07:10:16.326Z,98918.66
2023-05-13T07:12:43.989Z,98919.25
2023-05-13T07:15:11.986Z,98917.59
2023-05-13T07:17:40.579Z,98915.66
2023-05-13T07:20:10.167Z,98922.63
2023-05-13T07:22:37.709Z,98925.75
2023-05-13T07:25:06.834Z,98921.91
2023-05-13T07:27:36.495Z,98920.91
2023-05-13T07:30:04.941Z,98921.88
2023-05-13T07:32:37.014Z,98918.88
2023-05-13T07:35:05.719Z,98919.16
2023-05-13T07:37:32.960Z,98919.78
2023-05-13T07:40:00.129Z,98921.78
2023-05-13T07:42:29.855Z,98917.16
2023-05-13T07:44:57.208Z,98912.09
2023-05-13T07:47:24.561Z,98916.00
2023-05-13T07:49:51.790Z,98914.34
2023-05-13T07:52:19.182Z,98918.22
2023-05-13T07:54:46.492Z,98915.56
2023-05-13T07:57:13.707Z,98914.16
2023-05-13T07:59:43.324Z,98932.31
2023-05-13T08:02:12.661Z,98927.72
2023-05-13T08:04:40.305Z,98928.56
2023-05-13T08:07:08.429Z,98929.69
2023-05-13T08:09:35.647Z,98923.59
2023-05-13T08:12:02.981Z,98926.25
2023-05-13T08:14:30.395Z,98927.91
2023-05-13T08:16:58.724Z,98930.72
2023-05-13T08:19:26.404Z,98929.19
2023-05-13T08:21:54.466Z,98932.78
2023-05-13T08:24:22.377Z,98928.78
2023-05-13T08:26:51.049Z,98940.47
2023-05-13T08:29:19.071Z,98939.78
2023-05-13T08:31:46.588Z,98935.50
2023-05-13T08:34:13.920Z,98935.19
2023-05-13T08:36:41.228Z,98945.53
2023-05-13T08:39:09.821Z,98940.69
2023-05-13T08:41:38.328Z,98945.00
2023-05-13T08:44:07.529Z,98950.59
2023-05-13T08:46:38.548Z,98947.06
2023-05-13T08:49:07.851Z,98948.91
2023-05-13T08:51:35.752Z,98943.13
2023-05-13T08:54:04.942Z,98947.34
2023-05-13T08:56:32.371Z,98954.81
2023-05-13T08:58:59.573Z,98947.38
2023-05-13T09:01:27.709Z,98946.59
2023-05-13T09:04:02.917Z,98948.28
2023-05-13T09:06:30.780Z,98949.88
2023-05-13T09:08:58.475Z,98953.50
2023-05-13T09:11:26.858Z,98952.97
2023-05-13T09:14:03.693Z,98958.44
2023-05-13T09:16:32.763Z,98958.41
2023-05-13T09:19:05.358Z,98959.28
2023-05-13T09:21:43.764Z,98954.56
2023-05-13T09:24:21.409Z,98956.41
2023-05-13T09:26:52.100Z,98956.63
2023-05-13T09:29:24.561Z,98948.16
2023-05-13T09:31:57.889Z,98948.34
2023-05-13T09:34:34.301Z,98954.91
2023-05-13T09:37:03.963Z,98955.53
2023-05-13T09:39:41.802Z,98961.41
2023-05-13T09:42:19.738Z,98948.31
2023-05-13T09:44:48.928Z,98952.81
2023-05-13T09:47:17.892Z,98957.31
2023-05-13T09:49:55.072Z,98958.88
2023-05-13T09:52:22.684Z,98965.75
2023-05-13T09:54:49.992Z,98960.47
2023-05-13T09:57:21.311Z,98959.69
2023-05-13T09:59:48.667Z,98968.06
2023-05-13T10:02:18.409Z,98971.84
2023-05-13T10:04:47.086Z,98963.72
2023-05-13T10:07:15.564Z,98969.03
2023-05-13T10:09:46.155Z,98963.16
2023-05-13T10:12:15.425Z,98961.38
2023-05-13T10:14:44.315Z,98969.50
2023-05-13T10:17:15.388Z,98977.34
2023-05-13T10:19:43.169Z,98963.13
2023-05-13T10:22:13.210Z,98958.31
2023-05-13T10:24:44.757Z,98960.38
2023-05-13T10:27:13.689Z,98967.81
2023-05-13T10:29:44.697Z,98958.19
2023-05-13T10:32:13.926Z,98966.53
2023-05-13T10:34:44.976Z,98962.78
2023-05-13T10:38:17.330Z,98964.06
2023-05-13T10:41:08.100Z,98956.97
2023-05-13T10:43:39.148Z,98965.47
2023-05-13T10:46:12.742Z,98952.50
2023-05-13T10:48:56.463Z,98955.53
2023-05-13T10:51:26.012Z,98953.97
2023-05-13T10:53:59.086Z,98951.56
2023-05-13T10:56:29.092Z,98958.19
2023-05-13T10:59:05.736Z,98960.38
2023-05-13T11:01:43.287Z,98962.50
2023-05-13T11:04:22.775Z,98968.13
2023-05-13T11:06:51.866Z,98958.41
2023-05-13T11:09:22.231Z,98960.09
2023-05-13T11:11:55.965Z,98955.53
2023-05-13T11:14:27.320Z,98952.00
2023-05-13T11:17:10.119Z,98961.13
2023-05-13T11:19:47.970Z,98955.84
2023-05-13T11:22:20.543Z,98956.09
2023-05-13T11:25:09.304Z,98957.25
2023-05-13T11:28:01.647Z,98968.97
2023-05-13T11:30:29.186Z,98957.78
2023-05-13T11:32:59.372Z,98954.41
2023-05-13T11:35:32.982Z,98955.84
2023-05-13T11:38:06.727Z,98966.53
2023-05-13T11:40:37.223Z,98960.09
2023-05-13T11:43:06.400Z,98958.94
2023-05-13T11:45:39.095Z,98955.72
2023-05-13T11:48:24.400Z,98956.38
2023-05-13T11:50:53.409Z,98950.44
2023-05-13T11:53:23.706Z,98959.88
2023-05-13T11:55:51.692Z,98958.16
2023-05-13T11:58:21.817Z,98957.78
2023-05-13T12:00:49.603Z,98954.75
2023-05-13T12:03:17.630Z,98952.22
2023-05-13T12:05:45.651Z,98950.59
2023-05-13T12:08:13.361Z,98955.34
2023-05-13T12:10:45.714Z,98955.13
2023-05-13T12:13:13.891Z,98951.47
2023-05-13T12:15:42.592Z,98959.53
2023-05-13T12:18:10.004Z,98949.75
2023-05-13T12:20:38.777Z,98961.34
2023-05-13T12:23:07.134Z,98967.91
2023-05-13T12:25:51.507Z,98957.31
2023-05-13T12:28:27.305Z,98955.72
2023-05-13T12:31:05.867Z,98960.44
2023-05-13T12:33:46.912Z,98960.63
2023-05-13T12:36:26.051Z,98958.56
2023-05-13T12:39:11.703Z,98957.00
2023-05-13T12:41:42.473Z,98961.91
2023-05-13T12:44:14.509Z,98961.91
2023-05-13T12:46:54.319Z,98963.31
2023-05-13T12:49:22.445Z,98953.00
2023-05-13T12:51:51.711Z,98969.28
2023-05-13T12:54:19.396Z,98967.03
2023-05-13T12:56:46.923Z,98955.44
2023-05-13T12:59:14.464Z,98957.50
2023-05-13T13:01:42.948Z,98954.59
2023-05-13T13:04:10.817Z,98962.03
2023-05-13T13:06:38.308Z,98958.72
2023-05-13T13:09:06.042Z,98960.75
2023-05-13T13:11:33.875Z,98961.78
2023-05-13T13:14:01.443Z,98962.25
2023-05-13T13:16:29.316Z,98963.25
2023-05-13T13:19:01.529Z,98956.28
2023-05-13T13:21:29.350Z,98965.09
2023-05-13T13:23:57.077Z,98956.09
2023-05-13T13:26:25.446Z,98958.28
2023-05-13T13:28:53.446Z,98965.91
2023-05-13T13:31:21.358Z,98963.22
2023-05-13T13:33:49.127Z,98952.72
2023-05-13T13:36:17.092Z,98946.59
2023-05-13T13:38:44.565Z,98947.97
2023-05-13T13:41:11.974Z,98946.03
2023-05-13T13:43:39.179Z,98951.97
2023-05-13T13:46:06.457Z,98949.03
2023-05-13T13:48:33.739Z,98954.81
2023-05-13T13:51:01.176Z,98951.88
2023-05-13T13:53:28.487Z,98954.59
2023-05-13T13:55:55.716Z,98948.56
2023-05-13T13:58:23.006Z,98950.56
2023-05-13T14:00:50.320Z,98950.56
2023-05-13T14:03:17.991Z,98944.97
2023-05-13T14:05:45.984Z,98943.75
2023-05-13T14:08:13.484Z,98941.53
2023-05-13T14:10:41.221Z,98947.28
2023-05-13T14:13:08.584Z,98946.53
2023-05-13T14:15:39.223Z,98953.69
2023-05-13T14:18:07.884Z,98940.72
2023-05-13T14:20:36.746Z,98942.72
2023-05-13T14:23:05.513Z,98945.38
2023-05-13T14:25:34.088Z,98944.66
2023-05-13T14:28:02.301Z,98941.94
2023-05-13T14:30:30.872Z,98946.94
2023-05-13T14:33:00.598Z,98950.72
2023-05-13T14:35:28.678Z,98949.19
2023-05-13T14:37:56.131Z,98949.81
2023-05-13T14:40:24.121Z,98950.84
2023-05-13T14:42:51.741Z,98934.19
2023-05-13T14:45:19.195Z,98931.28
2023-05-13T14:47:46.454Z,98925.81
2023-05-13T14:50:15.178Z,98929.59
2023-05-13T14:52:42.493Z,98929.09
2023-05-13T14:55:10.845Z,98921.69
2023-05-13T14:57:39.176Z,98923.56
2023-05-13T15:00:07.765Z,98921.44
2023-05-13T15:02:35.735Z,98920.31
2023-05-13T15:05:03.662Z,98920.13
2023-05-13T15:07:31.738Z,98919.03
2023-05-13T15:10:00.048Z,98917.00
2023-05-13T15:12:30.837Z,98916.75
2023-05-13T15:14:59.101Z,98911.06
2023-05-13T15:17:27.405Z,98915.44
2023-05-13T15:19:54.796Z,98903.28
2023-05-13T15:22:22.687Z,98905.47
2023-05-13T15:24:50.804Z,98896.22
2023-05-13T15:27:19.571Z,98892.31
2023-05-13T15:29:49.475Z,98893.88
2023-05-13T15:32:16.932Z,98900.75
2023-05-13T15:34:44.308Z,98891.16
2023-05-13T15:37:11.772Z,98893.38
2023-05-13T15:39:39.101Z,98890.88
2023-05-13T15:42:09.599Z,98892.03
2023-05-13T15:44:37.263Z,98900.03
2023-05-13T15:47:06.264Z,98886.44
2023-05-13T15:49:33.630Z,98883.25
2023-05-13T15:52:01.615Z,98875.91
2023-05-13T15:54:29.959Z,98880.31
2023-05-13T15:57:00.548Z,98882.00
2023-05-13T15:59:27.978Z,98875.59
2023-05-13T16:01:55.349Z,98876.03
2023-05-13T16:04:24.276Z,98875.09
2023-05-13T16:06:52.272Z,98879.78
2023-05-13T16:09:19.703Z,98876.94
2023-05-13T16:11:47.868Z,98878.47
2023-05-13T16:14:19.396Z,98884.34
2023-05-13T16:16:46.984Z,98883.28
2023-05-13T16:19:17.703Z,98881.16
2023-05-13T16:21:45.953Z,98886.78
2023-05-13T16:24:13.765Z,98885.38
2023-05-13T16:26:41.739Z,98884.66
2023-05-13T16:29:09.585Z,98882.22
2023-05-13T16:31:37.371Z,98883.38
2023-05-13T16:34:04.687Z,98884.41
2023-05-13T16:36:31.987Z,98879.78
2023-05-13T16:38:59.975Z,98882.22
2023-05-13T16:41:27.441Z,98883.56
2023-05-13T16:43:57.723Z,98888.53
2023-05-13T16:46:24.987Z,98889.97
2023-05-13T16:48:52.270Z,98878.13
2023-05-13T16:51:22.457Z,98880.56
2023-05-13T16:53:49.611Z,98883.13
2023-05-13T16:56:16.852Z,98880.63
2023-05-13T16:58:44.050Z,98878.41
2023-05-13T17:01:11.808Z,98869.00
2023-05-13T17:03:39.522Z,98872.25
2023-05-13T17:06:07.682Z,98874.09
2023-05-13T17:08:34.933Z,98864.66
2023-05-13T17:11:02.172Z,98863.88
2023-05-13T17:13:32.286Z,98870.38
2023-05-13T17:15:59.551Z,98864.03
2023-05-13T17:18:29.288Z,98871.84
2023-05-13T17:20:56.703Z,98866.00
2023-05-13T17:23:24.417Z,98873.25
2023-05-13T17:25:52.508Z,98872.16
2023-05-13T17:28:26.733Z,98873.47
2023-05-13T17:30:54.105Z,98867.44
2023-05-13T17:33:27.832Z,98866.19
2023-05-13T17:35:55.040Z,98866.00
2023-05-13T17:38:22.680Z,98871.47
2023-05-13T17:40:51.622Z,98862.72
2023-05-13T17:43:19.116Z,98875.69
2023-05-13T17:45:46.393Z,98864.75
2023-05-13T17:48:13.949Z,98869.28
2023-05-13T17:50:46.491Z,98864.75
2023-05-13T17:53:13.630Z,98869.25
2023-05-13T17:55:41.352Z,98858.34
2023-05-13T17:58:08.685Z,98865.22
2023-05-13T18:00:36.009Z,98861.63
2023-05-13T18:03:03.286Z,98864.84
2023-05-13T18:05:33.223Z,98866.16
2023-05-13T18:08:03.538Z,98861.00
2023-05-13T18:10:30.913Z,98861.78
2023-05-13T18:12:58.255Z,98863.50
2023-05-13T18:15:25.617Z,98867.09
2023-05-13T18:17:52.909Z,98873.84
2023-05-13T18:20:20.515Z,98871.41
2023-05-13T18:22:47.970Z,98873.16
2023-05-13T18:25:15.216Z,98869.28
2023-05-13T18:27:45.500Z,98873.28
2023-05-13T18:30:13.927Z,98880.84
2023-05-13T18:32:44.676Z,98877.88
2023-05-13T18:35:12.008Z,98882.16
2023-05-13T18:37:39.274Z,98892.88
2023-05-13T18:40:08.107Z,98900.09
2023-05-13T18:42:40.044Z,98897.44
2023-05-13T18:45:10.129Z,98895.84
2023-05-13T18:47:40.363Z,98886.75
2023-05-13T18:50:11.056Z,98891.31
2023-05-13T18:52:41.415Z,98896.50
2023-05-13T18:55:09.061Z,98895.97
2023-05-13T18:57:36.327Z,98897.75
2023-05-13T19:00:04.430Z,98899.44
2023-05-13T19:02:32.757Z,98904.13
2023-05-13T19:05:03.168Z,98906.56
2023-05-13T19:07:30.347Z,98902.25
2023-05-13T19:10:00.628Z,98906.25
2023-05-13T19:12:30.669Z,98900.28
2023-05-13T19:14:57.824Z,98895.19
2023-05-13T19:17:25.141Z,98900.22
2023-05-13T19:19:52.351Z,98899.38
2023-05-13T19:22:21.825Z,98900.22
2023-05-13T19:24:49.091Z,98908.59
2023-05-13T19:27:16.285Z,98903.06
2023-05-13T19:29:43.417Z,98904.75
2023-05-13T19:32:10.988Z,98913.50
2023-05-13T19:34:38.163Z,98911.63
2023-05-13T19:37:06.372Z,98916.22
2023-05-13T19:39:33.668Z,98915.09
2023-05-13T19:42:04.193Z,98916.78
2023-05-13T19:44:31.900Z,98919.56
2023-05-13T19:46:59.722Z,98916.78
2023-05-13T19:49:27.060Z,98914.56
2023-05-13T19:51:54.296Z,98917.34
2023-05-13T19:54:21.420Z,98922.34
2023-05-13T19:56:48.659Z,98923.19
2023-05-13T19:59:16.170Z,98922.56
2023-05-13T20:01:43.686Z,98916.69
2023-05-13T20:04:11.390Z,98916.16
2023-05-13T20:06:39.592Z,98920.84
2023-05-13T20:09:10.431Z,98928.59
2023-05-13T20:11:37.809Z,98921.13
2023-05-13T20:14:05.238Z,98930.72
2023-05-13T20:16:33.640Z,98935.50
2023-05-13T20:19:01.048Z,98928.81
2023-05-13T20:21:33.587Z,98918.78
2023-05-13T20:24:00.787Z,98933.59
2023-05-13T20:26:27.981Z,98929.38
2023-05-13T20:28:55.311Z,98924.59
2023-05-13T20:31:28.553Z,98925.19
2023-05-13T20:33:55.863Z,98927.16
2023-05-13T20:36:23.102Z,98927.41
2023-05-13T20:38:50.345Z,98923.22
2023-05-13T20:41:17.520Z,98929.38
2023-05-13T20:43:47.242Z,98918.47
2023-05-13T20:46:16.968Z,98921.25
2023-05-13T20:48:44.432Z,98925.16
2023-05-13T20:51:11.825Z,98910.19
2023-05-13T20:53:39.179Z,98922.63
2023-05-13T20:56:09.788Z,98921.56
2023-05-13T20:58:37.251Z,98924.97
2023-05-13T21:01:05.453Z,98915.38
2023-05-13T21:03:33.380Z,98919.13
2023-05-13T21:06:01.204Z,98908.31
2023-05-13T21:08:28.550Z,98915.03
2023-05-13T21:10:59.332Z,98905.50
2023-05-13T21:13:27.207Z,98908.31
2023-05-13T21:15:55.620Z,98903.81
2023-05-13T21:18:23.939Z,98894.88
2023-05-13T21:20:51.612Z,98903.84
2023-05-13T21:23:20.667Z,98899.34
2023-05-13T21:25:48.322Z,98904.94
2023-05-13T21:28:18.458Z,98897.94
2023-05-13T21:30:46.237Z,98901.03
2023-05-13T21:33:13.709Z,98899.03
2023-05-13T21:35:41.065Z,98898.22
2023-05-13T21:38:12.154Z,98893.72
2023-05-13T21:40:46.075Z,98896.50
2023-05-13T21:43:13.284Z,98894.84
2023-05-13T21:45:40.794Z,98895.09
2023-05-13T21:48:08.483Z,98896.78
2023-05-13T21:50:35.972Z,98889.16
2023-05-13T21:53:04.345Z,98894.47
2023-05-13T21:55:34.958Z,98892.59
2023-05-13T21:58:03.178Z,98880.78
2023-05-13T22:00:31.737Z,98888.91
2023-05-13T22:03:01.479Z,98887.56
2023-05-13T22:05:28.900Z,98881.38
2023-05-13T22:07:56.655Z,98888.91
2023-05-13T22:10:24.695Z,98879.75
2023-05-13T22:12:52.568Z,98880.31
2023-05-13T22:15:21.417Z,98877.78
2023-05-13T22:17:50.650Z,98868.56
2023-05-13T22:20:18.138Z,98870.28
2023-05-13T22:22:46.106Z,98871.97
2023-05-13T22:25:14.141Z,98868.59
2023-05-13T22:27:41.755Z,98870.84
2023-05-13T22:30:09.834Z,98871.94
2023-05-13T22:32:38.408Z,98874.22
2023-05-13T22:35:07.202Z,98879.81
2023-05-13T22:37:34.550Z,98883.47
2023-05-13T22:40:02.179Z,98871.69
2023-05-13T22:42:29.662Z,98876.44
2023-05-13T22:44:56.974Z,98877.25
2023-05-13T22:47:24.308Z,98874.16
2023-05-13T22:49:51.557Z,98874.13
2023-05-13T22:52:18.862Z,98881.44
2023-05-13T22:54:46.067Z,98884.50
2023-05-13T22:57:13.266Z,98876.28
2023-05-13T22:59:40.907Z,98875.31
2023-05-13T23:02:12.976Z,98870.00
2023-05-13T23:04:40.336Z,98871.41
2023-05-13T23:07:08.467Z,98861.59
2023-05-13T23:09:36.189Z,98865.28
2023-05-13T23:12:03.747Z,98863.31
2023-05-13T23:14:31.036Z,98856.59
2023-05-13T23:16:58.274Z,98863.59
2023-05-13T23:19:26.203Z,98855.78
2023-05-13T23:21:54.183Z,98856.28
2023-05-13T23:24:22.052Z,98847.84
2023-05-13T23:26:49.884Z,98850.03
2023-05-13T23:29:17.814Z,98854.06
2023-05-13T23:31:45.523Z,98847.88
2023-05-13T23:34:12.901Z,98835.22
2023-05-13T23:36:40.528Z,98837.25
2023-05-13T23:39:08.070Z,98836.13
2023-05-13T23:41:36.036Z,98831.63
2023-05-13T23:44:03.728Z,98835.81
2023-05-13T23:46:32.337Z,98833.53
2023-05-13T23:48:59.821Z,98828.22
2023-05-13T23:51:27.200Z,98822.94
2023-05-13T23:53:55.477Z,98819.56
2023-05-13T23:56:22.828Z,98824.66
2023-05-13T23:58:50.076Z,98816.56
